createdAt,value
2023-01-29T00:00:32.684Z,5.30
2023-01-29T00:03:35.156Z,5.90
2023-01-29T00:06:36.818Z,5.97
2023-01-29T00:09:38.576Z,6.60
2023-01-29T00:12:40.226Z,5.70
2023-01-29T00:15:41.942Z,5.43
2023-01-29T00:18:43.884Z,6.10
2023-01-29T00:21:46.078Z,5.97
2023-01-29T00:24:47.630Z,5.87
2023-01-29T00:27:49.260Z,5.40
2023-01-29T00:30:50.833Z,5.60
2023-01-29T00:33:52.829Z,5.80
2023-01-29T00:37:04.771Z,6.20
2023-01-29T00:40:06.966Z,6.00
2023-01-29T00:43:27.187Z,5.60
2023-01-29T00:46:28.821Z,6.60
2023-01-29T00:49:38.179Z,6.00
2023-01-29T00:52:42.763Z,6.13
2023-01-29T00:55:44.987Z,5.93
2023-01-29T00:58:46.581Z,6.20
2023-01-29T01:02:06.841Z,5.20
2023-01-29T01:05:13.946Z,6.30
2023-01-29T01:08:34.196Z,6.07
2023-01-29T01:11:35.799Z,6.07
2023-01-29T01:14:37.393Z,6.37
2023-01-29T01:17:39.109Z,6.40
2023-01-29T01:20:41.499Z,6.00
2023-01-29T01:23:43.088Z,6.03
2023-01-29T01:26:44.710Z,6.30
2023-01-29T01:29:46.802Z,6.50
2023-01-29T01:32:48.451Z,5.97
2023-01-29T01:35:50.086Z,5.67
2023-01-29T01:38:51.745Z,6.33
2023-01-29T01:41:53.979Z,6.70
2023-01-29T01:45:06.289Z,7.47
2023-01-29T01:48:23.520Z,6.63
2023-01-29T01:51:28.547Z,6.70
2023-01-29T01:54:32.643Z,7.00
2023-01-29T01:57:34.280Z,6.90
2023-01-29T02:04:25.449Z,6.83
2023-01-29T02:07:46.001Z,5.73
2023-01-29T02:10:49.393Z,6.57
2023-01-29T02:13:53.568Z,6.60
2023-01-29T02:16:55.250Z,6.60
2023-01-29T02:20:18.153Z,6.00
2023-01-29T02:24:01.413Z,6.47
2023-01-29T02:27:19.346Z,5.63
2023-01-29T02:34:56.916Z,6.83
2023-01-29T02:38:30.631Z,6.40
2023-01-29T02:41:38.635Z,7.27
2023-01-29T02:45:01.858Z,6.10
2023-01-29T02:48:04.156Z,7.13
2023-01-29T02:51:13.827Z,6.60
2023-01-29T02:54:30.550Z,7.60
2023-01-29T02:57:38.963Z,6.77
2023-01-29T03:00:45.028Z,7.40
2023-01-29T03:03:52.538Z,7.47
2023-01-29T03:07:02.948Z,7.27
2023-01-29T03:10:11.781Z,7.30
2023-01-29T03:13:20.668Z,6.40
2023-01-29T03:16:32.811Z,6.83
2023-01-29T03:19:44.379Z,7.03
2023-01-29T03:22:51.171Z,7.17
2023-01-29T03:26:18.183Z,7.17
2023-01-29T03:29:38.500Z,7.47
2023-01-29T03:32:41.334Z,6.60
2023-01-29T03:35:51.972Z,6.37
2023-01-29T03:38:53.906Z,7.37
2023-01-29T03:42:13.350Z,7.33
2023-01-29T03:45:20.181Z,7.60
2023-01-29T03:48:37.995Z,7.53
2023-01-29T03:52:08.146Z,8.70
2023-01-29T03:55:24.841Z,8.50
2023-01-29T03:58:39.510Z,8.50
2023-01-29T04:02:10.151Z,7.73
2023-01-29T04:05:20.059Z,8.90
2023-01-29T04:08:27.506Z,8.77
2023-01-29T04:11:30.197Z,8.80
2023-01-29T04:14:32.663Z,7.50
2023-01-29T04:17:39.661Z,6.70
2023-01-29T04:20:44.050Z,7.73
2023-01-29T04:23:45.704Z,9.00
2023-01-29T04:27:21.213Z,7.50
2023-01-29T04:30:34.141Z,7.57
2023-01-29T04:33:46.907Z,7.87
2023-01-29T04:37:16.842Z,8.40
2023-01-29T04:40:20.493Z,6.37
2023-01-29T04:43:28.649Z,8.00
2023-01-29T04:46:41.914Z,7.73
2023-01-29T04:50:15.322Z,6.87
2023-01-29T04:53:37.707Z,7.20
2023-01-29T04:56:56.598Z,8.13
2023-01-29T05:00:02.339Z,9.17
2023-01-29T05:03:05.127Z,8.97
2023-01-29T05:06:09.642Z,7.77
2023-01-29T05:09:14.641Z,9.13
2023-01-29T05:12:17.760Z,7.70
2023-01-29T05:15:25.508Z,8.40
2023-01-29T05:18:28.395Z,8.37
2023-01-29T05:21:30.083Z,8.73
2023-01-29T05:24:31.662Z,8.47
2023-01-29T05:27:54.025Z,8.20
2023-01-29T05:30:58.718Z,7.00
2023-01-29T05:34:00.472Z,7.00
2023-01-29T05:37:02.183Z,7.10
2023-01-29T05:40:04.076Z,6.60
2023-01-29T05:43:13.863Z,7.27
2023-01-29T05:46:15.472Z,7.53
2023-01-29T05:49:18.144Z,7.83
2023-01-29T05:52:19.721Z,6.33
2023-01-29T05:55:21.290Z,6.13
2023-01-29T05:58:23.221Z,6.00
2023-01-29T06:01:25.895Z,6.10
2023-01-29T06:04:27.550Z,5.83
2023-01-29T06:07:29.227Z,5.67
2023-01-29T06:10:30.943Z,5.30
2023-01-29T06:13:32.549Z,6.43
2023-01-29T06:16:34.211Z,6.67
2023-01-29T06:19:35.811Z,6.90
2023-01-29T06:22:37.412Z,6.60
2023-01-29T06:25:39.039Z,8.60
2023-01-29T06:28:40.749Z,8.30
2023-01-29T06:31:42.470Z,6.60
2023-01-29T06:34:45.192Z,7.10
2023-01-29T06:37:46.823Z,8.40
2023-01-29T06:40:48.425Z,8.73
2023-01-29T06:43:52.551Z,8.93
2023-01-29T06:46:54.127Z,10.33
2023-01-29T06:49:55.780Z,8.70
2023-01-29T06:52:59.144Z,8.40
2023-01-29T06:56:00.885Z,8.50
2023-01-29T06:59:02.837Z,11.73
2023-01-29T07:02:04.607Z,13.00
2023-01-29T07:05:06.552Z,11.73
2023-01-29T07:08:09.523Z,8.83
2023-01-29T07:11:11.586Z,7.10
2023-01-29T07:14:13.209Z,7.87
2023-01-29T07:17:14.880Z,7.53
2023-01-29T07:20:16.881Z,8.40
2023-01-29T07:23:18.867Z,6.80
2023-01-29T07:26:20.662Z,9.80
2023-01-29T07:29:22.351Z,7.07
2023-01-29T07:32:23.990Z,10.20
2023-01-29T07:35:25.663Z,19.87
2023-01-29T07:38:27.264Z,7.47
2023-01-29T07:41:28.932Z,7.30
2023-01-29T07:44:30.569Z,6.70
2023-01-29T07:47:32.666Z,6.43
2023-01-29T07:50:35.479Z,7.43
2023-01-29T07:53:37.347Z,9.43
2023-01-29T07:56:38.961Z,10.17
2023-01-29T07:59:40.543Z,10.13
2023-01-29T08:02:42.251Z,10.70
2023-01-29T08:05:45.092Z,9.90
2023-01-29T08:08:46.764Z,10.10
2023-01-29T08:11:48.411Z,11.20
2023-01-29T08:14:50.178Z,10.30
2023-01-29T08:17:57.782Z,10.57
2023-01-29T08:21:03.285Z,9.60
2023-01-29T08:24:05.280Z,7.90
2023-01-29T08:27:06.936Z,9.27
2023-01-29T08:30:09.859Z,8.50
2023-01-29T08:33:11.607Z,8.83
2023-01-29T08:36:13.645Z,6.73
2023-01-29T08:39:15.360Z,8.33
2023-01-29T08:42:16.940Z,7.43
2023-01-29T08:45:18.612Z,8.60
2023-01-29T08:48:20.308Z,7.30
2023-01-29T08:51:22.181Z,8.33
2023-01-29T08:54:24.147Z,7.30
2023-01-29T08:57:25.742Z,8.10
2023-01-29T09:00:27.389Z,7.10
2023-01-29T09:03:29.020Z,7.30
2023-01-29T09:06:30.643Z,7.67
2023-01-29T09:09:32.766Z,7.80
2023-01-29T09:12:34.350Z,6.87
2023-01-29T09:15:36.023Z,7.10
2023-01-29T09:18:37.767Z,9.27
2023-01-29T09:21:39.364Z,15.77
2023-01-29T09:24:41.004Z,9.50
2023-01-29T09:27:42.632Z,9.20
2023-01-29T09:30:46.384Z,7.30
2023-01-29T09:33:51.191Z,6.70
2023-01-29T09:36:53.061Z,6.07
2023-01-29T09:39:54.813Z,6.80
2023-01-29T09:43:07.796Z,6.10
2023-01-29T09:46:30.183Z,7.13
2023-01-29T09:49:37.734Z,9.10
2023-01-29T09:52:46.475Z,7.97
2023-01-29T09:56:05.766Z,9.37
2023-01-29T09:59:11.903Z,13.37
2023-01-29T10:02:42.708Z,12.87
2023-01-29T10:06:12.989Z,12.37
2023-01-29T10:09:21.053Z,9.87
2023-01-29T10:12:57.899Z,10.83
2023-01-29T10:16:21.831Z,12.90
2023-01-29T10:19:41.752Z,10.23
2023-01-29T10:22:54.982Z,9.70
2023-01-29T10:25:56.921Z,10.73
2023-01-29T10:29:01.927Z,9.77
2023-01-29T10:32:05.859Z,9.80
2023-01-29T10:35:31.099Z,8.77
2023-01-29T10:38:45.960Z,9.47
2023-01-29T10:42:23.163Z,9.33
2023-01-29T10:46:12.390Z,8.07
2023-01-29T10:49:39.047Z,11.20
2023-01-29T10:53:21.635Z,12.17
2023-01-29T10:56:57.804Z,7.13
2023-01-29T11:00:19.954Z,7.27
2023-01-29T11:03:28.830Z,7.60
2023-01-29T11:06:36.069Z,7.13
2023-01-29T11:09:48.693Z,8.83
2023-01-29T11:12:51.064Z,7.27
2023-01-29T11:15:53.541Z,8.60
2023-01-29T11:18:58.693Z,7.57
2023-01-29T11:22:01.399Z,7.30
2023-01-29T11:25:17.233Z,7.57
2023-01-29T11:28:39.593Z,6.80
2023-01-29T11:31:41.295Z,6.83
2023-01-29T11:35:06.117Z,6.60
2023-01-29T11:38:27.651Z,6.90
2023-01-29T11:41:29.424Z,7.20
2023-01-29T11:44:40.999Z,7.30
2023-01-29T11:47:42.661Z,7.03
2023-01-29T11:50:50.959Z,7.63
2023-01-29T11:54:03.747Z,7.53
2023-01-29T11:57:13.417Z,8.00
2023-01-29T12:00:24.727Z,6.77
2023-01-29T12:03:44.276Z,8.07
2023-01-29T12:06:50.433Z,7.00
2023-01-29T12:09:57.864Z,6.40
2023-01-29T12:13:19.886Z,6.60
2023-01-29T12:16:44.302Z,7.10
2023-01-29T12:19:54.860Z,7.27
2023-01-29T12:23:12.224Z,7.33
2023-01-29T12:26:46.117Z,9.00
2023-01-29T12:30:06.177Z,9.70
2023-01-29T12:33:34.709Z,8.00
2023-01-29T12:36:53.013Z,8.77
2023-01-29T12:39:54.985Z,9.10
2023-01-29T12:43:01.629Z,7.90
2023-01-29T12:46:06.411Z,7.30
2023-01-29T12:49:17.331Z,7.70
2023-01-29T12:52:29.168Z,6.60
2023-01-29T12:55:53.834Z,6.90
2023-01-29T12:58:57.734Z,9.03
2023-01-29T13:02:13.018Z,9.43
2023-01-29T13:05:23.423Z,8.07
2023-01-29T13:08:35.961Z,9.43
2023-01-29T13:11:39.767Z,8.73
2023-01-29T13:15:08.314Z,7.90
2023-01-29T13:18:31.920Z,7.87
2023-01-29T13:21:40.173Z,7.03
2023-01-29T13:24:47.861Z,7.43
2023-01-29T13:27:51.817Z,7.57
2023-01-29T13:31:14.697Z,7.07
2023-01-29T13:34:29.298Z,7.43
2023-01-29T13:37:33.059Z,7.70
2023-01-29T13:40:34.783Z,8.70
2023-01-29T13:43:42.726Z,7.57
2023-01-29T13:47:02.536Z,7.20
2023-01-29T13:50:23.944Z,7.20
2023-01-29T13:53:35.533Z,7.27
2023-01-29T13:56:40.129Z,6.80
2023-01-29T13:59:56.366Z,7.17
2023-01-29T14:03:01.018Z,7.00
2023-01-29T14:06:02.981Z,7.67
2023-01-29T14:09:40.225Z,7.50
2023-01-29T14:12:43.333Z,7.30
2023-01-29T14:15:57.222Z,8.30
2023-01-29T14:19:05.001Z,8.57
2023-01-29T14:22:06.811Z,7.23
2023-01-29T14:25:18.026Z,6.90
2023-01-29T14:28:27.323Z,7.97
2023-01-29T14:31:52.140Z,8.43
2023-01-29T14:35:03.631Z,7.53
2023-01-29T14:38:18.187Z,6.87
2023-01-29T14:41:31.264Z,7.70
2023-01-29T14:44:44.766Z,6.60
2023-01-29T14:47:49.273Z,7.33
2023-01-29T14:50:54.136Z,7.27
2023-01-29T14:54:04.650Z,7.43
2023-01-29T14:57:12.629Z,7.40
2023-01-29T15:00:37.515Z,7.80
2023-01-29T15:03:58.567Z,7.50
2023-01-29T15:07:05.969Z,7.70
2023-01-29T15:10:23.175Z,6.23
2023-01-29T15:13:38.133Z,8.47
2023-01-29T15:16:55.828Z,7.67
2023-01-29T15:19:58.010Z,7.00
2023-01-29T15:23:03.228Z,8.00
2023-01-29T15:26:16.060Z,7.60
2023-01-29T15:29:24.294Z,7.07
2023-01-29T15:32:39.952Z,7.07
2023-01-29T15:35:43.103Z,8.20
2023-01-29T15:38:44.796Z,8.67
2023-01-29T15:41:47.403Z,8.60
2023-01-29T15:44:49.035Z,8.40
2023-01-29T15:47:51.750Z,9.87
2023-01-29T15:50:54.703Z,9.77
2023-01-29T15:54:15.632Z,9.80
2023-01-29T15:57:35.289Z,9.80
2023-01-29T16:00:37.616Z,9.30
2023-01-29T16:03:39.544Z,10.90
2023-01-29T16:06:42.675Z,10.57
2023-01-29T16:09:44.642Z,11.50
2023-01-29T16:12:51.240Z,10.67
2023-01-29T16:16:01.186Z,11.20
2023-01-29T16:19:21.389Z,9.67
2023-01-29T16:22:23.347Z,11.00
2023-01-29T16:25:25.131Z,10.83
2023-01-29T16:28:27.058Z,11.43
2023-01-29T16:31:31.489Z,11.40
2023-01-29T16:34:45.003Z,10.00
2023-01-29T16:37:51.283Z,12.23
2023-01-29T16:41:15.232Z,10.80
2023-01-29T16:44:16.876Z,10.57
2023-01-29T16:47:29.611Z,11.30
2023-01-29T16:50:40.566Z,12.80
2023-01-29T16:53:59.760Z,12.53
2023-01-29T16:57:01.979Z,11.10
2023-01-29T17:00:07.841Z,12.43
2023-01-29T17:03:13.194Z,12.70
2023-01-29T17:06:26.497Z,13.90
2023-01-29T17:09:34.412Z,11.83
2023-01-29T17:12:38.555Z,12.07
2023-01-29T17:15:43.216Z,12.77
2023-01-29T17:18:44.816Z,13.87
2023-01-29T17:21:47.107Z,12.60
2023-01-29T17:24:51.376Z,13.30
2023-01-29T17:27:53.205Z,12.40
2023-01-29T17:31:05.958Z,13.20
2023-01-29T17:34:14.385Z,13.90
2023-01-29T17:37:16.795Z,13.10
2023-01-29T17:40:39.310Z,13.20
2023-01-29T17:43:41.216Z,16.60
2023-01-29T17:46:43.400Z,17.73
2023-01-29T17:49:45.024Z,16.60
2023-01-29T17:52:46.640Z,15.57
2023-01-29T17:55:49.269Z,15.33
2023-01-29T17:58:50.909Z,16.20
2023-01-29T18:01:53.417Z,16.40
2023-01-29T18:04:55.576Z,14.90
2023-01-29T18:07:57.744Z,15.17
2023-01-29T18:11:00.968Z,14.47
2023-01-29T18:14:07.566Z,15.10
2023-01-29T18:17:17.434Z,15.13
2023-01-29T18:20:25.667Z,16.43
2023-01-29T18:23:29.370Z,15.77
2023-01-29T18:26:31.019Z,15.90
2023-01-29T18:29:32.674Z,16.40
2023-01-29T18:32:34.547Z,14.80
2023-01-29T18:35:36.186Z,14.97
2023-01-29T18:38:37.786Z,14.03
2023-01-29T18:41:39.475Z,14.00
2023-01-29T18:44:41.105Z,13.10
2023-01-29T18:47:42.743Z,12.83
2023-01-29T18:50:44.428Z,13.00
2023-01-29T18:53:50.917Z,12.30
2023-01-29T18:57:06.302Z,14.63
2023-01-29T19:00:14.425Z,13.17
2023-01-29T19:03:16.340Z,12.37
2023-01-29T19:06:17.984Z,13.40
2023-01-29T19:09:20.702Z,14.60
2023-01-29T19:12:23.126Z,13.90
2023-01-29T19:15:24.856Z,13.60
2023-01-29T19:18:27.793Z,13.63
2023-01-29T19:21:30.329Z,14.97
2023-01-29T19:24:36.223Z,12.60
2023-01-29T19:27:37.959Z,14.20
2023-01-29T19:30:39.567Z,14.73
2023-01-29T19:33:41.420Z,13.87
2023-01-29T19:36:43.057Z,13.70
2023-01-29T19:39:44.669Z,13.17
2023-01-29T19:42:46.651Z,14.57
2023-01-29T19:45:49.559Z,15.20
2023-01-29T19:48:54.454Z,14.40
2023-01-29T19:51:58.916Z,14.57
2023-01-29T19:55:02.156Z,14.60
2023-01-29T19:58:04.699Z,14.47
2023-01-29T20:01:14.281Z,15.93
2023-01-29T20:04:15.973Z,14.07
2023-01-29T20:07:19.785Z,17.70
2023-01-29T20:10:21.602Z,17.80
2023-01-29T20:13:23.506Z,17.50
2023-01-29T20:16:26.365Z,16.00
2023-01-29T20:19:28.051Z,14.07
2023-01-29T20:22:29.934Z,14.80
2023-01-29T20:25:31.544Z,14.97
2023-01-29T20:28:33.305Z,15.43
2023-01-29T20:31:35.088Z,13.53
2023-01-29T20:34:36.748Z,14.47
2023-01-29T20:37:38.495Z,15.03
2023-01-29T20:40:40.470Z,14.30
2023-01-29T20:43:43.146Z,14.33
2023-01-29T20:46:45.443Z,13.70
2023-01-29T20:49:47.026Z,15.40
2023-01-29T20:52:48.764Z,14.30
2023-01-29T20:55:50.421Z,15.00
2023-01-29T20:58:52.183Z,14.20
2023-01-29T21:01:53.875Z,15.40
2023-01-29T21:04:56.545Z,16.70
2023-01-29T21:07:58.163Z,16.90
2023-01-29T21:10:59.787Z,16.03
2023-01-29T21:14:01.861Z,15.93
2023-01-29T21:17:04.810Z,14.70
2023-01-29T21:20:11.065Z,14.93
2023-01-29T21:23:12.836Z,15.10
2023-01-29T21:26:14.493Z,15.30
2023-01-29T21:29:16.139Z,14.47
2023-01-29T21:32:18.897Z,13.00
2023-01-29T21:35:20.635Z,15.17
2023-01-29T21:38:22.347Z,14.23
2023-01-29T21:41:44.636Z,14.10
2023-01-29T21:44:46.256Z,13.60
2023-01-29T21:47:48.044Z,14.83
2023-01-29T21:50:49.974Z,14.00
2023-01-29T21:53:51.562Z,14.23
2023-01-29T21:56:53.176Z,13.90
2023-01-29T21:59:55.162Z,14.20
2023-01-29T22:02:56.930Z,14.67
2023-01-29T22:05:58.628Z,13.40
2023-01-29T22:09:00.356Z,14.33
2023-01-29T22:12:02.294Z,14.87
2023-01-29T22:15:04.827Z,15.03
2023-01-29T22:18:06.566Z,15.90
2023-01-29T22:21:08.280Z,14.37
2023-01-29T22:24:10.080Z,15.50
2023-01-29T22:27:15.351Z,15.10
2023-01-29T22:30:17.735Z,16.40
2023-01-29T22:33:19.561Z,15.90
2023-01-29T22:36:21.294Z,14.43
2023-01-29T22:39:22.922Z,13.23
2023-01-29T22:42:24.589Z,15.40
2023-01-29T22:45:27.337Z,17.10
2023-01-29T22:48:30.515Z,14.97
2023-01-29T22:51:32.169Z,15.27
2023-01-29T22:54:33.722Z,16.00
2023-01-29T22:57:36.025Z,16.50
2023-01-29T23:00:37.590Z,16.40
2023-01-29T23:03:39.220Z,16.10
2023-01-29T23:06:40.825Z,16.70
2023-01-29T23:09:42.468Z,15.57
2023-01-29T23:12:44.115Z,14.87
2023-01-29T23:15:45.945Z,16.00
2023-01-29T23:18:50.906Z,14.70
2023-01-29T23:21:52.526Z,15.83
2023-01-29T23:24:54.192Z,15.40
2023-01-29T23:27:55.892Z,14.37
2023-01-29T23:30:57.670Z,15.00
2023-01-29T23:33:59.474Z,15.90
2023-01-29T23:37:01.146Z,16.83
2023-01-29T23:40:02.837Z,12.90
2023-01-29T23:43:04.515Z,15.23
2023-01-29T23:46:06.197Z,13.93
2023-01-29T23:49:08.465Z,15.33
2023-01-29T23:52:10.282Z,13.73
2023-01-29T23:55:11.945Z,15.43
2023-01-29T23:58:13.565Z,14.00
